Saint Barthelemy, St. Barthelemy

12:47 PM AST on July 10, 2014 (GMT -0400)
ISTBARTH2 Elev 633 ft | 17.90 °N, 62.81 °W | Change Station

Current weather conditions updated 1 minute ago

Scattered Clouds
Scattered Clouds
94.3 °F
Feels Like 120 °F
N
3.1
Wind Variable Wind from ESE
Gusts 7.4 mph

Today is forecast to be Much Cooler than yesterday. Thunderstorms developing late tonight.

Today
High -- | Low -- °F
--% Chance of Precip.
Yesterday
High -- | Low -- °F
Precip. -- in
5:42 AM 6:50 PM
Waxing Gibbous, 95% visible
Pressure 30.06 in
Visibility 6.2 miles
Clouds Scattered Clouds 2100 ft
Heat Index 120 °F
Dew Point 82 °F
Humidity 70%
Rainfall 0.00 in
Snow Depth Not available.
UV 14 out of 12
Pollen Not available.
Air Quality Not available.
Flu Activity Not available.
METAR TNCM 101600Z 09015KT 9999 SCT021 30/23 Q1018 A3008 NOSIG

More Conditions Fewer Conditions

Pressure 30.06 in
Visibility 6.2 miles
Clouds Scattered Clouds 2100 ft
Heat Index 120 °F
Dew Point 82 °F
Humidity 70%
Rainfall 0.00 in
Snow Depth Not available.
UV 14 out of 12
Pollen Not available.
Air Quality Not available.
Flu Activity Not available.
METAR TNCM 101600Z 09015KT 9999 SCT021 30/23 Q1018 A3008 NOSIG

More Conditions Fewer Conditions

10-Day Weather Forecast

Almanac

Astronomy

Jul. 10, 2014 Rise Set
Actual Time 5:42 AM AST 6:50 PM AST
Civil Twilight 5:18 AM AST 7:14 PM AST
Nautical Twilight 4:50 AM AST 7:43 PM AST
Astronomical Twilight 4:21 AM AST 8:12 PM AST
Moon 5:06 PM AST 3:42 AM AST
Length of Visible Light 13h 56m
Length of Day
13h 08m
Tomorrow will be 0m 24s shorter.
Waxing Gibbous, 95% of the Moon is Illuminated
Today
Waxing Gibbous
Jul 12
Full
Jul 18
Last Quarter
Jul 26
New
Aug 3
First Quarter

Community

WunderPhotos

Upload Photos

1,732,191 photos uploaded!

WunderBlogs® & News

Nearby

Snow Depth

Not available.

Earthquake Activity

City Distance Mag. Time & Date
No recent earthquake activity has been reported nearby.
Minimum magnitude displayed is 2.5.

Coastal Water Temperatures

Place Temperature
No Stations Reporting

Nearby Weather Stations

Station Location Temp. Heat Index Dew Point Humidity Wind Precip. Elev Updated Type
St Barthelemy 94.3 °F 120 °F 82 °F 70% ESE  at  3.1 mph 0.00 in / hr 633 ft 12:45 PM AST Normal
Cole Bay, St.Maarten, Cole Bay 85.3 °F 94 °F 75 °F 71% WNW  at  6.0 mph 0.00 in / hr 171 ft 12:45 PM AST Normal
Concordia, Saint-Martin 91.2 °F 104 °F 76 °F 62% ENE  at  3.4 mph 0.00 in / hr 85 ft 11:23 AM AST Rapid Fire

Show More Stations Show Fewer Stations